sensor_id;sensor_type;location;lat;lon;timestamp;pressure;altitude;pressure_sealevel;temperature;humidity
22862;BME280;11598;50.652;6.172;2023-06-19T00:04:12;95865.47;;;15.37;100.00
22862;BME280;11598;50.652;6.172;2023-06-19T00:14:13;95867.78;;;15.40;100.00
22862;BME280;11598;50.652;6.172;2023-06-19T00:24:14;95890.53;;;15.48;100.00
22862;BME280;11598;50.652;6.172;2023-06-19T00:34:14;95891.22;;;15.50;100.00
22862;BME280;11598;50.652;6.172;2023-06-19T00:44:14;95896.13;;;15.61;99.83
22862;BME280;11598;50.652;6.172;2023-06-19T00:54:15;95914.50;;;15.70;99.22
22862;BME280;11598;50.652;6.172;2023-06-19T01:04:17;95907.19;;;15.73;97.91
22862;BME280;11598;50.652;6.172;2023-06-19T01:14:21;95922.41;;;15.78;96.76
22862;BME280;11598;50.652;6.172;2023-06-19T01:24:22;95919.97;;;15.76;96.10
22862;BME280;11598;50.652;6.172;2023-06-19T01:34:23;95920.09;;;15.75;95.46
22862;BME280;11598;50.652;6.172;2023-06-19T01:44:26;95924.53;;;15.74;95.10
22862;BME280;11598;50.652;6.172;2023-06-19T01:54:26;95937.81;;;15.81;94.44
22862;BME280;11598;50.652;6.172;2023-06-19T02:04:27;95950.09;;;15.80;93.79
22862;BME280;11598;50.652;6.172;2023-06-19T02:14:28;95959.03;;;15.70;94.27
22862;BME280;11598;50.652;6.172;2023-06-19T02:24:28;95974.19;;;15.58;94.75
22862;BME280;11598;50.652;6.172;2023-06-19T02:34:28;95982.31;;;15.47;94.94
22862;BME280;11598;50.652;6.172;2023-06-19T02:44:29;95991.41;;;15.34;95.57
22862;BME280;11598;50.652;6.172;2023-06-19T02:54:29;96015.22;;;15.23;96.19
22862;BME280;11598;50.652;6.172;2023-06-19T03:04:29;96009.97;;;15.15;97.64
22862;BME280;11598;50.652;6.172;2023-06-19T03:14:30;96023.13;;;15.05;98.93
22862;BME280;11598;50.652;6.172;2023-06-19T03:24:30;96034.41;;;15.06;100.00
22862;BME280;11598;50.652;6.172;2023-06-19T03:34:30;96040.28;;;15.26;100.00
22862;BME280;11598;50.652;6.172;2023-06-19T03:44:31;96069.03;;;15.43;100.00
22862;BME280;11598;50.652;6.172;2023-06-19T03:54:31;96074.97;;;15.54;100.00
22862;BME280;11598;50.652;6.172;2023-06-19T04:04:31;96085.88;;;15.67;100.00
22862;BME280;11598;50.652;6.172;2023-06-19T04:14:32;96088.94;;;15.80;100.00
22862;BME280;11598;50.652;6.172;2023-06-19T04:24:32;96099.97;;;15.92;100.00
22862;BME280;11598;50.652;6.172;2023-06-19T04:34:32;96110.78;;;15.97;100.00
22862;BME280;11598;50.652;6.172;2023-06-19T04:44:33;96117.19;;;16.03;100.00
22862;BME280;11598;50.652;6.172;2023-06-19T04:54:33;96103.16;;;16.12;100.00
22862;BME280;11598;50.652;6.172;2023-06-19T05:04:34;96108.91;;;16.16;100.00
22862;BME280;11598;50.652;6.172;2023-06-19T05:14:34;96121.38;;;16.22;100.00
22862;BME280;11598;50.652;6.172;2023-06-19T05:24:34;96125.19;;;16.27;100.00
22862;BME280;11598;50.652;6.172;2023-06-19T05:34:35;96129.16;;;16.40;100.00
22862;BME280;11598;50.652;6.172;2023-06-19T05:44:35;96130.34;;;16.62;99.55
22862;BME280;11598;50.652;6.172;2023-06-19T05:54:35;96122.28;;;17.39;98.12
22862;BME280;11598;50.652;6.172;2023-06-19T06:04:36;96134.75;;;17.61;96.11
22862;BME280;11598;50.652;6.172;2023-06-19T06:14:36;96146.25;;;17.52;95.62
22862;BME280;11598;50.652;6.172;2023-06-19T06:24:37;96164.63;;;17.85;94.45
22862;BME280;11598;50.652;6.172;2023-06-19T06:34:38;96180.72;;;18.06;92.91
22862;BME280;11598;50.652;6.172;2023-06-19T06:44:39;96182.16;;;18.17;92.23
22862;BME280;11598;50.652;6.172;2023-06-19T06:54:39;96177.91;;;18.55;90.51
22862;BME280;11598;50.652;6.172;2023-06-19T07:04:39;96193.81;;;18.70;89.08
22862;BME280;11598;50.652;6.172;2023-06-19T07:14:40;96223.50;;;18.95;86.66
22862;BME280;11598;50.652;6.172;2023-06-19T07:24:41;96231.78;;;19.15;85.05
22862;BME280;11598;50.652;6.172;2023-06-19T07:34:41;96232.09;;;19.20;83.70
22862;BME280;11598;50.652;6.172;2023-06-19T07:44:42;96235.88;;;19.72;80.63
22862;BME280;11598;50.652;6.172;2023-06-19T07:54:54;96233.44;;;20.61;79.01
22862;BME280;11598;50.652;6.172;2023-06-19T08:04:55;96223.66;;;21.28;74.65
22862;BME280;11598;50.652;6.172;2023-06-19T08:14:55;96244.03;;;22.13;71.36
22862;BME280;11598;50.652;6.172;2023-06-19T08:24:56;96245.91;;;22.83;67.09
22862;BME280;11598;50.652;6.172;2023-06-19T08:34:56;96245.25;;;24.17;63.03
22862;BME280;11598;50.652;6.172;2023-06-19T08:44:57;96263.00;;;23.76;60.67
22862;BME280;11598;50.652;6.172;2023-06-19T08:54:57;96266.66;;;23.14;61.24
22862;BME280;11598;50.652;6.172;2023-06-19T09:05:09;96274.00;;;23.18;59.34
22862;BME280;11598;50.652;6.172;2023-06-19T09:15:14;96275.56;;;23.48;57.98
22862;BME280;11598;50.652;6.172;2023-06-19T09:25:14;96280.06;;;23.47;56.87
22862;BME280;11598;50.652;6.172;2023-06-19T09:35:15;96272.00;;;23.20;57.61
22862;BME280;11598;50.652;6.172;2023-06-19T09:45:17;96277.16;;;22.94;57.37
22862;BME280;11598;50.652;6.172;2023-06-19T09:55:19;96272.22;;;23.19;56.94
22862;BME280;11598;50.652;6.172;2023-06-19T10:05:29;96284.06;;;23.30;55.39
22862;BME280;11598;50.652;6.172;2023-06-19T10:15:30;96274.97;;;23.52;54.56
22862;BME280;11598;50.652;6.172;2023-06-19T10:25:33;96266.63;;;23.69;55.61
22862;BME280;11598;50.652;6.172;2023-06-19T10:35:41;96273.16;;;23.66;55.62
22862;BME280;11598;50.652;6.172;2023-06-19T10:45:41;96267.59;;;23.48;55.47
22862;BME280;11598;50.652;6.172;2023-06-19T10:55:42;96265.34;;;23.38;54.29
22862;BME280;11598;50.652;6.172;2023-06-19T11:05:46;96259.44;;;23.49;54.52
22862;BME280;11598;50.652;6.172;2023-06-19T11:15:48;96248.25;;;23.47;52.86
22862;BME280;11598;50.652;6.172;2023-06-19T11:25:49;96266.00;;;23.60;54.68
22862;BME280;11598;50.652;6.172;2023-06-19T11:35:50;96256.91;;;23.82;52.67
22862;BME280;11598;50.652;6.172;2023-06-19T11:45:51;96240.34;;;23.94;51.51
22862;BME280;11598;50.652;6.172;2023-06-19T11:55:52;96254.25;;;24.22;52.42
22862;BME280;11598;50.652;6.172;2023-06-19T12:05:53;96257.53;;;24.58;51.05
22862;BME280;11598;50.652;6.172;2023-06-19T12:15:53;96267.91;;;24.66;52.49
22862;BME280;11598;50.652;6.172;2023-06-19T12:25:53;96260.13;;;24.64;52.18
22862;BME280;11598;50.652;6.172;2023-06-19T12:35:54;96251.41;;;24.51;52.08
22862;BME280;11598;50.652;6.172;2023-06-19T12:45:54;96254.84;;;24.24;52.32
22862;BME280;11598;50.652;6.172;2023-06-19T12:55:58;96234.03;;;24.15;51.21
22862;BME280;11598;50.652;6.172;2023-06-19T13:05:59;96230.97;;;23.98;51.17
22862;BME280;11598;50.652;6.172;2023-06-19T13:15:59;96235.06;;;23.87;49.76
22862;BME280;11598;50.652;6.172;2023-06-19T13:26:00;96217.09;;;23.82;50.26
22862;BME280;11598;50.652;6.172;2023-06-19T13:36:00;96222.19;;;23.77;48.93
22862;BME280;11598;50.652;6.172;2023-06-19T13:46:00;96217.09;;;24.02;49.49
22862;BME280;11598;50.652;6.172;2023-06-19T13:56:03;96205.44;;;24.23;50.06
22862;BME280;11598;50.652;6.172;2023-06-19T14:06:03;96204.41;;;24.31;48.71
22862;BME280;11598;50.652;6.172;2023-06-19T14:16:04;96195.00;;;24.35;49.14
22862;BME280;11598;50.652;6.172;2023-06-19T14:26:04;96186.66;;;24.25;47.83
22862;BME280;11598;50.652;6.172;2023-06-19T14:36:06;96186.00;;;24.63;47.31
22862;BME280;11598;50.652;6.172;2023-06-19T14:46:08;96175.19;;;24.58;48.47
22862;BME280;11598;50.652;6.172;2023-06-19T14:56:09;96173.97;;;24.54;48.33
22862;BME280;11598;50.652;6.172;2023-06-19T15:06:09;96172.56;;;24.24;48.84
22862;BME280;11598;50.652;6.172;2023-06-19T15:16:09;96178.09;;;24.16;47.93
22862;BME280;11598;50.652;6.172;2023-06-19T15:26:12;96164.56;;;24.38;49.51
22862;BME280;11598;50.652;6.172;2023-06-19T15:36:12;96147.59;;;24.52;47.10
22862;BME280;11598;50.652;6.172;2023-06-19T15:46:14;96151.09;;;24.39;46.56
22862;BME280;11598;50.652;6.172;2023-06-19T15:56:14;96152.13;;;24.32;46.20
22862;BME280;11598;50.652;6.172;2023-06-19T16:06:15;96153.78;;;24.26;46.13
22862;BME280;11598;50.652;6.172;2023-06-19T16:16:15;96153.13;;;24.37;45.39
22862;BME280;11598;50.652;6.172;2023-06-19T16:26:16;96139.88;;;24.31;45.14
22862;BME280;11598;50.652;6.172;2023-06-19T16:36:17;96143.41;;;24.11;46.01
22862;BME280;11598;50.652;6.172;2023-06-19T16:46:18;96139.75;;;23.99;45.80
22862;BME280;11598;50.652;6.172;2023-06-19T16:56:19;96126.88;;;23.69;46.94
22862;BME280;11598;50.652;6.172;2023-06-19T17:06:19;96117.69;;;23.72;46.34
22862;BME280;11598;50.652;6.172;2023-06-19T17:16:20;96120.75;;;23.82;48.33
22862;BME280;11598;50.652;6.172;2023-06-19T17:26:20;96130.75;;;23.73;49.72
22862;BME280;11598;50.652;6.172;2023-06-19T17:36:21;96144.19;;;23.58;49.92
22862;BME280;11598;50.652;6.172;2023-06-19T17:46:21;96149.31;;;23.33;50.47
22862;BME280;11598;50.652;6.172;2023-06-19T17:56:21;96161.72;;;23.33;49.27
22862;BME280;11598;50.652;6.172;2023-06-19T18:06:22;96165.75;;;23.15;49.32
22862;BME280;11598;50.652;6.172;2023-06-19T18:16:23;96158.19;;;22.99;50.02
22862;BME280;11598;50.652;6.172;2023-06-19T18:26:23;96161.78;;;22.85;50.30
22862;BME280;11598;50.652;6.172;2023-06-19T18:36:24;96150.16;;;22.79;50.41
22862;BME280;11598;50.652;6.172;2023-06-19T18:46:25;96145.97;;;22.56;51.88
22862;BME280;11598;50.652;6.172;2023-06-19T18:56:25;96153.97;;;22.28;52.90
22862;BME280;11598;50.652;6.172;2023-06-19T19:06:26;96162.63;;;22.15;53.25
22862;BME280;11598;50.652;6.172;2023-06-19T19:16:26;96156.38;;;21.95;53.92
22862;BME280;11598;50.652;6.172;2023-06-19T19:26:27;96156.84;;;21.77;54.35
22862;BME280;11598;50.652;6.172;2023-06-19T19:36:27;96162.00;;;21.57;55.23
22862;BME280;11598;50.652;6.172;2023-06-19T19:46:27;96163.25;;;21.40;55.99
22862;BME280;11598;50.652;6.172;2023-06-19T19:56:28;96168.56;;;21.25;56.75
22862;BME280;11598;50.652;6.172;2023-06-19T20:06:28;96178.56;;;21.08;57.75
22862;BME280;11598;50.652;6.172;2023-06-19T20:16:29;96197.25;;;20.92;58.96
22862;BME280;11598;50.652;6.172;2023-06-19T20:26:29;96209.84;;;20.75;60.11
22862;BME280;11598;50.652;6.172;2023-06-19T20:36:29;96202.56;;;20.62;60.84
22862;BME280;11598;50.652;6.172;2023-06-19T20:46:30;96196.44;;;20.32;62.63
22862;BME280;11598;50.652;6.172;2023-06-19T20:56:30;96196.38;;;20.25;63.22
22862;BME280;11598;50.652;6.172;2023-06-19T21:06:31;96193.25;;;20.06;64.70
22862;BME280;11598;50.652;6.172;2023-06-19T21:16:33;96192.75;;;19.88;65.92
22862;BME280;11598;50.652;6.172;2023-06-19T21:26:33;96198.00;;;19.73;66.72
22862;BME280;11598;50.652;6.172;2023-06-19T21:36:35;96201.03;;;19.62;67.71
22862;BME280;11598;50.652;6.172;2023-06-19T21:46:35;96198.50;;;19.46;69.24
22862;BME280;11598;50.652;6.172;2023-06-19T21:56:35;96196.16;;;19.28;70.71
22862;BME280;11598;50.652;6.172;2023-06-19T22:06:36;96190.69;;;19.06;72.89
22862;BME280;11598;50.652;6.172;2023-06-19T22:16:36;96187.38;;;18.81;75.63
22862;BME280;11598;50.652;6.172;2023-06-19T22:26:36;96181.88;;;18.51;79.15
22862;BME280;11598;50.652;6.172;2023-06-19T22:36:37;96177.72;;;18.17;82.62
22862;BME280;11598;50.652;6.172;2023-06-19T22:46:38;96171.03;;;17.82;85.72
22862;BME280;11598;50.652;6.172;2023-06-19T22:56:39;96175.97;;;17.52;89.19
22862;BME280;11598;50.652;6.172;2023-06-19T23:17:36;96166.59;;;17.17;94.58
22862;BME280;11598;50.652;6.172;2023-06-19T23:27:36;96173.28;;;17.11;95.83
22862;BME280;11598;50.652;6.172;2023-06-19T23:37:37;96172.63;;;17.01;97.33
22862;BME280;11598;50.652;6.172;2023-06-19T23:47:37;96155.38;;;16.90;98.67
22862;BME280;11598;50.652;6.172;2023-06-19T23:57:39;96156.50;;;16.80;100.00
